Terminal Aerodrome Forecast
Issued by NWS

Home | Current Version | Previous Version | Text Only | Print | Product List | Glossary On
Versions: 1 2 3 4 5 6 7 8 9 10 11 12 13 14 15
000
FTUS45 KABQ 031740
TAFTCC
TAF
KTCC 031740Z 0318/0418 16009KT P6SM SCT100
     FM040000 16012KT P6SM VCSH SCT035 BKN080
      TEMPO 0402/0405 6SM -TSRA OVC035CB
     FM040700 22011KT P6SM BKN100=

USA.gov is the U.S. government's official web portal to all federal, state and local government web resources and services.